createdAt,value
2018-01-22T00:01:15.455Z,1145.90
2018-01-22T00:03:44.633Z,1134.50
2018-01-22T00:06:13.887Z,1120.03
2018-01-22T00:08:43.035Z,1105.73
2018-01-22T00:11:12.180Z,1099.90
2018-01-22T00:13:41.364Z,1067.40
2018-01-22T00:16:10.517Z,1058.47
2018-01-22T00:18:39.676Z,1028.57
2018-01-22T00:21:08.822Z,986.10
2018-01-22T00:23:38.080Z,961.20
2018-01-22T00:26:07.235Z,900.90
2018-01-22T00:28:36.382Z,850.27
2018-01-22T00:31:05.530Z,819.67
2018-01-22T00:33:34.715Z,742.83
2018-01-22T00:36:03.865Z,697.43
2018-01-22T00:38:33.038Z,648.13
2018-01-22T00:41:02.196Z,591.60
2018-01-22T00:43:31.360Z,518.93
2018-01-22T00:46:00.536Z,525.77
2018-01-22T00:48:29.690Z,470.63
2018-01-22T00:50:58.877Z,429.17
2018-01-22T00:53:28.016Z,415.63
2018-01-22T00:55:57.201Z,363.70
2018-01-22T00:58:26.344Z,360.53
2018-01-22T01:00:55.525Z,350.77
2018-01-22T01:03:24.673Z,334.80
2018-01-22T01:05:53.848Z,274.73
2018-01-22T01:08:23.013Z,263.83
2018-01-22T01:10:52.202Z,247.27
2018-01-22T01:13:21.354Z,238.37
2018-01-22T01:15:50.502Z,233.33
2018-01-22T01:18:19.645Z,218.00
2018-01-22T01:20:48.802Z,218.63
2018-01-22T01:23:17.970Z,207.00
2018-01-22T01:25:47.112Z,203.03
2018-01-22T01:28:16.284Z,209.00
2018-01-22T01:30:45.440Z,206.53
2018-01-22T01:33:14.655Z,217.23
2018-01-22T01:35:43.805Z,221.63
2018-01-22T01:38:13.003Z,252.87
2018-01-22T01:40:42.146Z,236.33
2018-01-22T01:43:11.296Z,238.73
2018-01-22T01:45:40.444Z,221.03
2018-01-22T01:48:09.599Z,232.07
2018-01-22T01:50:38.765Z,209.37
2018-01-22T01:53:07.942Z,218.37
2018-01-22T01:55:37.103Z,215.70
2018-01-22T01:58:06.289Z,224.37
2018-01-22T02:00:35.974Z,202.80
2018-01-22T02:03:05.170Z,186.50
2018-01-22T02:05:34.313Z,177.20
2018-01-22T02:08:03.487Z,181.17
2018-01-22T02:10:32.621Z,173.80
2018-01-22T02:13:01.824Z,185.20
2018-01-22T02:15:30.978Z,165.97
2018-01-22T02:18:00.162Z,164.80
2018-01-22T02:20:29.298Z,169.77
2018-01-22T02:22:58.448Z,166.67
2018-01-22T02:25:27.615Z,168.33
2018-01-22T02:27:56.792Z,166.03
2018-01-22T02:30:25.961Z,174.73
2018-01-22T02:32:55.105Z,228.10
2018-01-22T02:35:24.277Z,169.50
2018-01-22T02:37:53.466Z,247.53
2018-01-22T02:40:22.613Z,211.70
2018-01-22T02:42:51.783Z,209.70
2018-01-22T02:45:20.932Z,198.07
2018-01-22T02:47:50.101Z,192.40
2018-01-22T02:50:19.254Z,210.97
2018-01-22T02:52:48.446Z,191.87
2018-01-22T02:55:17.589Z,183.20
2018-01-22T02:57:46.758Z,185.73
2018-01-22T03:00:15.903Z,233.33
2018-01-22T03:02:45.081Z,206.63
2018-01-22T03:05:14.258Z,267.83
2018-01-22T03:07:43.438Z,195.17
2018-01-22T03:10:12.569Z,203.57
2018-01-22T03:12:41.749Z,191.73
2018-01-22T03:15:10.918Z,188.23
2018-01-22T03:17:40.069Z,244.07
2018-01-22T03:20:09.237Z,187.87
2018-01-22T03:22:38.421Z,182.20
2018-01-22T03:25:07.578Z,179.97
2018-01-22T03:27:36.744Z,213.40
2018-01-22T03:30:05.933Z,205.10
2018-01-22T03:32:35.080Z,204.13
2018-01-22T03:35:04.250Z,181.27
2018-01-22T03:37:33.393Z,223.10
2018-01-22T03:40:02.570Z,241.40
2018-01-22T03:42:31.720Z,220.23
2018-01-22T03:45:00.930Z,190.77
2018-01-22T03:47:30.064Z,197.23
2018-01-22T03:49:59.213Z,193.83
2018-01-22T03:52:28.353Z,181.13
2018-01-22T03:54:57.519Z,184.10
2018-01-22T03:57:26.735Z,258.57
2018-01-22T03:59:55.894Z,166.00
2018-01-22T04:02:25.085Z,181.80
2018-01-22T04:04:54.231Z,204.33
2018-01-22T04:07:23.425Z,181.30
2018-01-22T04:09:52.562Z,175.40
2018-01-22T04:12:21.726Z,249.70
2018-01-22T04:14:50.865Z,161.57
2018-01-22T04:17:20.047Z,210.33
2018-01-22T04:19:49.226Z,181.93
2018-01-22T04:22:18.368Z,223.63
2018-01-22T04:24:47.546Z,193.47
2018-01-22T04:27:16.731Z,166.83
2018-01-22T04:29:45.905Z,172.07
2018-01-22T04:32:15.086Z,167.37
2018-01-22T04:34:44.237Z,242.00
2018-01-22T04:37:13.401Z,220.23
2018-01-22T04:39:42.589Z,204.47
2018-01-22T04:42:12.345Z,283.10
2018-01-22T04:44:41.484Z,224.27
2018-01-22T04:47:10.662Z,239.43
2018-01-22T04:49:39.801Z,160.40
2018-01-22T04:52:08.966Z,164.23
2018-01-22T04:54:38.125Z,180.27
2018-01-22T04:57:07.293Z,211.67
2018-01-22T04:59:36.464Z,206.73
2018-01-22T05:02:05.645Z,194.70
2018-01-22T05:04:34.793Z,375.57
2018-01-22T05:07:03.945Z,218.80
2018-01-22T05:09:33.129Z,162.70
2018-01-22T05:12:02.309Z,202.63
2018-01-22T05:14:31.449Z,236.00
2018-01-22T05:17:00.633Z,246.10
2018-01-22T05:19:29.773Z,214.90
2018-01-22T05:21:58.962Z,305.77
2018-01-22T05:24:28.127Z,182.90
2018-01-22T05:26:57.297Z,313.80
2018-01-22T05:29:26.433Z,307.70
2018-01-22T05:31:55.614Z,324.43
2018-01-22T05:34:24.757Z,250.93
2018-01-22T05:36:53.973Z,250.37
2018-01-22T05:39:23.141Z,282.93
2018-01-22T05:41:52.351Z,305.37
2018-01-22T05:44:21.505Z,232.87
2018-01-22T05:46:50.653Z,224.37
2018-01-22T05:49:19.797Z,243.60
2018-01-22T05:51:48.948Z,201.60
2018-01-22T05:54:18.125Z,217.83
2018-01-22T05:56:47.265Z,190.97
2018-01-22T05:59:16.503Z,204.33
2018-01-22T06:01:45.658Z,214.90
2018-01-22T06:04:14.803Z,245.10
2018-01-22T06:06:43.957Z,309.20
2018-01-22T06:09:13.124Z,296.77
2018-01-22T06:11:42.302Z,312.90
2018-01-22T06:14:11.452Z,312.93
2018-01-22T06:16:40.625Z,345.37
2018-01-22T06:19:09.765Z,289.80
2018-01-22T06:21:38.975Z,254.40
2018-01-22T06:24:08.412Z,223.50
2018-01-22T06:26:37.591Z,246.70
2018-01-22T06:29:06.797Z,263.07
2018-01-22T06:31:35.973Z,277.67
2018-01-22T06:34:05.158Z,258.40
2018-01-22T06:36:34.330Z,277.40
2018-01-22T06:39:03.516Z,257.53
2018-01-22T06:41:32.648Z,249.70
2018-01-22T06:44:01.853Z,239.73
2018-01-22T06:46:30.981Z,240.70
2018-01-22T06:49:00.138Z,230.37
2018-01-22T06:51:29.288Z,222.57
2018-01-22T06:53:58.470Z,232.37
2018-01-22T06:56:27.618Z,216.27
2018-01-22T06:58:56.772Z,220.83
2018-01-22T07:01:25.946Z,266.47
2018-01-22T07:03:55.112Z,213.67
2018-01-22T07:06:24.277Z,212.20
2018-01-22T07:08:53.470Z,246.67
2018-01-22T07:11:22.642Z,255.80
2018-01-22T07:13:51.809Z,271.03
2018-01-22T07:16:20.998Z,281.23
2018-01-22T07:18:50.160Z,306.07
2018-01-22T07:21:19.322Z,327.00
2018-01-22T07:23:48.496Z,335.60
2018-01-22T07:26:17.681Z,335.03
2018-01-22T07:28:46.823Z,367.23
2018-01-22T07:31:15.999Z,365.47
2018-01-22T07:33:45.138Z,326.00
2018-01-22T07:36:14.305Z,319.33
2018-01-22T07:38:43.472Z,283.73
2018-01-22T07:41:12.657Z,292.37
2018-01-22T07:43:41.809Z,267.03
2018-01-22T07:46:10.961Z,269.73
2018-01-22T07:48:40.094Z,299.97
2018-01-22T07:51:09.291Z,253.53
2018-01-22T07:53:38.477Z,276.53
2018-01-22T07:56:07.632Z,274.37
2018-01-22T07:58:36.785Z,306.03
2018-01-22T08:01:05.943Z,351.93
2018-01-22T08:03:35.119Z,368.10
2018-01-22T08:06:04.267Z,416.07
2018-01-22T08:08:33.482Z,364.23
2018-01-22T08:11:02.667Z,402.50
2018-01-22T08:13:31.809Z,398.07
2018-01-22T08:16:01.012Z,410.27
2018-01-22T08:18:30.196Z,393.87
2018-01-22T08:20:59.389Z,414.27
2018-01-22T08:23:28.575Z,436.30
2018-01-22T08:25:58.169Z,442.20
2018-01-22T08:28:27.352Z,457.23
2018-01-22T08:30:56.524Z,465.10
2018-01-22T08:33:25.678Z,475.03
2018-01-22T08:35:54.860Z,478.10
2018-01-22T08:38:24.011Z,467.73
2018-01-22T08:40:53.196Z,491.80
2018-01-22T08:43:22.330Z,523.57
2018-01-22T08:45:51.489Z,546.63
2018-01-22T08:48:20.642Z,595.73
2018-01-22T08:50:49.837Z,628.37
2018-01-22T08:53:19.014Z,623.93
2018-01-22T08:55:48.162Z,625.13
2018-01-22T08:58:17.337Z,604.83
2018-01-22T09:00:46.476Z,583.37
2018-01-22T09:03:15.662Z,563.23
2018-01-22T09:05:44.849Z,646.07
2018-01-22T09:08:13.990Z,690.93
2018-01-22T09:10:43.176Z,724.80
2018-01-22T09:13:12.321Z,727.80
2018-01-22T09:15:41.498Z,715.93
2018-01-22T09:18:10.642Z,755.47
2018-01-22T09:20:39.868Z,748.50
2018-01-22T09:23:09.033Z,720.57
2018-01-22T09:25:38.200Z,693.60
2018-01-22T09:28:07.348Z,687.13
2018-01-22T09:30:36.535Z,662.20
2018-01-22T09:33:05.673Z,666.33
2018-01-22T09:35:34.842Z,668.73
2018-01-22T09:38:04.058Z,699.37
2018-01-22T09:40:33.211Z,721.20
2018-01-22T09:43:02.396Z,737.80
2018-01-22T09:45:31.593Z,756.93
2018-01-22T09:48:00.744Z,779.40
2018-01-22T09:50:29.930Z,804.07
2018-01-22T09:52:59.101Z,814.83
2018-01-22T09:55:28.271Z,842.63
2018-01-22T09:57:57.445Z,859.67
2018-01-22T10:00:26.652Z,859.73
2018-01-22T10:02:55.822Z,848.17
2018-01-22T10:05:24.975Z,849.70
2018-01-22T10:07:54.142Z,854.67
2018-01-22T10:10:23.354Z,877.70
2018-01-22T10:12:52.569Z,872.53
2018-01-22T10:15:21.712Z,887.37
2018-01-22T10:17:51.001Z,893.43
2018-01-22T10:20:20.141Z,894.73
2018-01-22T10:22:49.299Z,897.90
2018-01-22T10:25:18.470Z,897.93
2018-01-22T10:27:47.662Z,877.30
2018-01-22T10:30:16.861Z,835.93
2018-01-22T10:32:46.005Z,843.30
2018-01-22T10:35:15.164Z,835.67
2018-01-22T10:37:44.365Z,832.93
2018-01-22T10:40:13.535Z,842.27
2018-01-22T10:42:42.722Z,810.93
2018-01-22T10:45:11.906Z,793.53
2018-01-22T10:47:41.095Z,806.03
2018-01-22T10:50:10.248Z,821.97
2018-01-22T10:52:39.439Z,834.40
2018-01-22T10:55:08.635Z,853.43
2018-01-22T10:57:37.805Z,857.07
2018-01-22T11:00:06.962Z,870.90
2018-01-22T11:02:36.158Z,867.77
2018-01-22T11:05:05.368Z,864.33
2018-01-22T11:07:34.493Z,869.57
2018-01-22T11:10:03.702Z,856.63
2018-01-22T11:12:32.874Z,874.47
2018-01-22T11:15:02.066Z,899.13
2018-01-22T11:17:31.263Z,906.17
2018-01-22T11:20:00.438Z,918.27
2018-01-22T11:22:29.570Z,926.17
2018-01-22T11:24:58.772Z,934.50
2018-01-22T11:27:27.953Z,946.70
2018-01-22T11:29:57.113Z,936.03
2018-01-22T11:32:26.297Z,918.90
2018-01-22T11:34:55.450Z,913.67
2018-01-22T11:37:24.641Z,913.07
2018-01-22T11:39:53.801Z,915.50
2018-01-22T11:42:22.982Z,909.60
2018-01-22T11:44:52.157Z,900.50
2018-01-22T11:47:21.304Z,899.97
2018-01-22T11:49:50.483Z,870.90
2018-01-22T11:52:19.657Z,877.70
2018-01-22T11:54:48.812Z,874.10
2018-01-22T11:57:17.994Z,864.43
2018-01-22T11:59:47.142Z,870.73
2018-01-22T12:02:17.031Z,880.87
2018-01-22T12:04:46.212Z,871.53
2018-01-22T12:07:15.396Z,885.07
2018-01-22T12:09:44.557Z,872.23
2018-01-22T12:12:13.713Z,849.77
2018-01-22T12:14:42.894Z,823.00
2018-01-22T12:17:12.066Z,785.63
2018-01-22T12:19:41.215Z,782.47
2018-01-22T12:22:10.388Z,762.50
2018-01-22T12:24:39.537Z,761.63
2018-01-22T12:27:08.765Z,795.63
2018-01-22T12:29:37.869Z,787.30
2018-01-22T12:32:07.057Z,799.20
2018-01-22T12:34:36.196Z,787.13
2018-01-22T12:37:05.405Z,776.20
2018-01-22T12:39:34.574Z,783.90
2018-01-22T12:42:03.719Z,778.40
2018-01-22T12:44:32.898Z,784.53
2018-01-22T12:47:02.118Z,755.60
2018-01-22T12:49:31.277Z,742.60
2018-01-22T12:52:00.477Z,763.80
2018-01-22T12:54:29.613Z,776.57
2018-01-22T12:56:58.799Z,776.57
2018-01-22T12:59:27.946Z,818.57
2018-01-22T13:01:57.136Z,854.57
2018-01-22T13:04:26.280Z,892.60
2018-01-22T13:06:55.422Z,909.40
2018-01-22T13:09:24.555Z,919.27
2018-01-22T13:11:53.742Z,909.47
2018-01-22T13:14:22.931Z,907.37
2018-01-22T13:16:52.063Z,893.43
2018-01-22T13:19:21.227Z,896.90
2018-01-22T13:21:50.381Z,904.07
2018-01-22T13:24:19.558Z,905.33
2018-01-22T13:26:48.701Z,920.43
2018-01-22T13:29:17.890Z,939.63
2018-01-22T13:31:47.038Z,948.10
2018-01-22T13:34:16.210Z,951.57
2018-01-22T13:36:45.394Z,943.33
2018-01-22T13:39:14.541Z,935.90
2018-01-22T13:41:43.732Z,936.00
2018-01-22T13:44:12.918Z,916.50
2018-01-22T13:46:42.074Z,919.57
2018-01-22T13:49:11.217Z,915.33
2018-01-22T13:51:40.402Z,909.07
2018-01-22T13:54:09.553Z,902.40
2018-01-22T13:56:38.727Z,896.63
2018-01-22T13:59:07.982Z,892.53
2018-01-22T14:01:37.183Z,876.57
2018-01-22T14:04:06.355Z,862.97
2018-01-22T14:06:35.496Z,871.90
2018-01-22T14:09:04.694Z,881.73
2018-01-22T14:11:33.838Z,898.93
2018-01-22T14:14:03.035Z,892.67
2018-01-22T14:16:32.178Z,908.50
2018-01-22T14:19:01.350Z,900.27
2018-01-22T14:21:30.528Z,891.13
2018-01-22T14:23:59.678Z,884.27
2018-01-22T14:26:28.853Z,884.23
2018-01-22T14:28:58.027Z,883.33
2018-01-22T14:31:27.204Z,873.83
2018-01-22T14:33:56.393Z,866.00
2018-01-22T14:36:25.562Z,879.10
2018-01-22T14:38:54.714Z,889.97
2018-01-22T14:41:23.865Z,892.07
2018-01-22T14:43:53.007Z,901.07
2018-01-22T14:46:22.198Z,910.03
2018-01-22T14:48:51.335Z,914.60
2018-01-22T14:51:21.401Z,929.67
2018-01-22T14:53:50.541Z,933.73
2018-01-22T14:56:19.752Z,935.90
2018-01-22T14:58:48.886Z,905.30
2018-01-22T15:01:18.046Z,902.97
2018-01-22T15:03:47.215Z,892.07
2018-01-22T15:06:16.418Z,861.93
2018-01-22T15:08:45.607Z,846.93
2018-01-22T15:11:14.747Z,835.30
2018-01-22T15:13:43.933Z,850.17
2018-01-22T15:16:13.077Z,850.33
2018-01-22T15:18:42.266Z,837.70
2018-01-22T15:21:11.408Z,823.83
2018-01-22T15:23:40.565Z,853.00
2018-01-22T15:26:09.736Z,848.90
2018-01-22T15:28:38.887Z,856.70
2018-01-22T15:31:08.038Z,814.83
2018-01-22T15:33:37.212Z,801.47
2018-01-22T15:36:06.371Z,814.13
2018-01-22T15:38:35.541Z,812.73
2018-01-22T15:41:04.673Z,808.13
2018-01-22T15:43:33.857Z,799.53
2018-01-22T15:46:03.021Z,798.23
2018-01-22T15:48:32.196Z,812.73
2018-01-22T15:51:01.433Z,814.50
2018-01-22T15:53:30.650Z,823.53
2018-01-22T15:55:59.807Z,822.77
2018-01-22T15:58:28.966Z,840.43
2018-01-22T16:00:58.163Z,843.87
2018-01-22T16:03:27.331Z,844.67
2018-01-22T16:05:56.479Z,856.67
2018-01-22T16:08:25.666Z,846.17
2018-01-22T16:10:54.841Z,860.87
2018-01-22T16:13:23.978Z,859.83
2018-01-22T16:15:53.161Z,852.90
2018-01-22T16:18:22.338Z,836.10
2018-01-22T16:20:51.473Z,836.80
2018-01-22T16:23:20.647Z,816.47
2018-01-22T16:25:49.832Z,821.93
2018-01-22T16:28:19.013Z,828.13
2018-01-22T16:30:48.204Z,817.60
2018-01-22T16:33:17.391Z,831.07
2018-01-22T16:35:46.519Z,839.00
2018-01-22T16:38:15.714Z,841.53
2018-01-22T16:40:44.862Z,830.43
2018-01-22T16:43:14.019Z,839.20
2018-01-22T16:45:43.195Z,826.33
2018-01-22T16:48:12.348Z,842.17
2018-01-22T16:50:41.539Z,863.57
2018-01-22T16:53:10.740Z,868.03
2018-01-22T16:55:39.918Z,869.60
2018-01-22T16:58:09.109Z,875.73
2018-01-22T17:00:38.282Z,892.07
2018-01-22T17:03:07.422Z,871.40
2018-01-22T17:05:36.568Z,874.97
2018-01-22T17:08:05.721Z,878.67
2018-01-22T17:10:34.893Z,876.70
2018-01-22T17:13:04.037Z,874.10
2018-01-22T17:15:33.217Z,877.67
2018-01-22T17:18:02.397Z,868.27
2018-01-22T17:20:31.601Z,862.10
2018-01-22T17:23:00.797Z,858.30
2018-01-22T17:25:29.994Z,859.27
2018-01-22T17:27:59.142Z,845.63
2018-01-22T17:30:28.302Z,814.37
2018-01-22T17:32:57.449Z,793.63
2018-01-22T17:35:26.601Z,776.53
2018-01-22T17:37:55.757Z,751.53
2018-01-22T17:40:24.932Z,724.60
2018-01-22T17:42:54.117Z,711.93
2018-01-22T17:45:23.293Z,694.03
2018-01-22T17:47:52.481Z,681.87
2018-01-22T17:50:21.678Z,683.20
2018-01-22T17:52:50.825Z,663.00
2018-01-22T17:55:20.011Z,609.57
2018-01-22T17:57:49.215Z,605.93
2018-01-22T18:00:18.405Z,592.90
2018-01-22T18:02:47.601Z,560.03
2018-01-22T18:05:16.777Z,520.47
2018-01-22T18:07:45.977Z,504.83
2018-01-22T18:10:15.166Z,518.97
2018-01-22T18:12:44.346Z,565.03
2018-01-22T18:15:13.525Z,582.03
2018-01-22T18:17:42.687Z,603.03
2018-01-22T18:20:11.854Z,606.53
2018-01-22T18:22:40.998Z,597.10
2018-01-22T18:25:10.179Z,554.23
2018-01-22T18:27:39.318Z,523.40
2018-01-22T18:30:08.488Z,498.83
2018-01-22T18:32:37.629Z,487.40
2018-01-22T18:35:06.828Z,477.80
2018-01-22T18:37:35.983Z,463.87
2018-01-22T18:40:05.161Z,469.57
2018-01-22T18:42:34.341Z,456.40
2018-01-22T18:45:03.525Z,451.57
2018-01-22T18:47:32.709Z,451.57
2018-01-22T18:50:01.895Z,429.40
2018-01-22T18:52:31.056Z,437.17
2018-01-22T18:55:00.597Z,430.53
2018-01-22T18:57:29.769Z,439.70
2018-01-22T18:59:58.920Z,475.83
2018-01-22T19:02:28.094Z,460.87
2018-01-22T19:04:57.277Z,470.13
2018-01-22T19:07:26.445Z,668.50
2018-01-22T19:09:55.721Z,507.03
2018-01-22T19:12:24.865Z,544.40
2018-01-22T19:14:54.018Z,554.57
2018-01-22T19:17:23.156Z,581.07
2018-01-22T19:19:52.345Z,628.07
2018-01-22T19:22:21.480Z,566.97
2018-01-22T19:24:50.687Z,550.03
2018-01-22T19:27:19.839Z,542.83
2018-01-22T19:29:48.977Z,589.67
2018-01-22T19:32:18.164Z,587.03
2018-01-22T19:34:47.313Z,600.57
2018-01-22T19:37:16.545Z,679.97
2018-01-22T19:39:45.677Z,633.03
2018-01-22T19:42:14.869Z,581.30
2018-01-22T19:44:44.049Z,577.20
2018-01-22T19:47:13.196Z,585.50
2018-01-22T19:49:42.401Z,588.07
2018-01-22T19:52:11.549Z,597.50
2018-01-22T19:54:40.700Z,595.07
2018-01-22T19:57:09.844Z,602.73
2018-01-22T19:59:39.003Z,628.37
2018-01-22T20:02:08.182Z,588.30
2018-01-22T20:04:37.369Z,574.20
2018-01-22T20:07:06.548Z,582.20
2018-01-22T20:09:35.748Z,599.70
2018-01-22T20:12:04.900Z,578.77
2018-01-22T20:14:34.044Z,574.60
2018-01-22T20:17:03.218Z,566.63
2018-01-22T20:19:32.403Z,609.23
2018-01-22T20:22:01.539Z,630.40
2018-01-22T20:24:30.722Z,622.63
2018-01-22T20:26:59.913Z,604.10
2018-01-22T20:29:29.086Z,592.53
2018-01-22T20:31:58.238Z,613.90
2018-01-22T20:34:27.369Z,542.17
2018-01-22T20:36:56.566Z,541.07
2018-01-22T20:39:25.718Z,586.23
2018-01-22T20:41:54.859Z,559.30
2018-01-22T20:44:24.036Z,574.80
2018-01-22T20:46:53.184Z,527.10
2018-01-22T20:49:22.366Z,552.97
2018-01-22T20:51:51.497Z,528.40
2018-01-22T20:54:20.695Z,535.50
2018-01-22T20:56:49.882Z,550.57
2018-01-22T20:59:19.073Z,534.50
2018-01-22T21:01:48.220Z,551.10
2018-01-22T21:04:17.410Z,531.03
2018-01-22T21:06:46.553Z,532.90
2018-01-22T21:09:15.725Z,546.20
2018-01-22T21:11:45.642Z,542.60
2018-01-22T21:14:14.910Z,543.13
2018-01-22T21:16:44.089Z,556.03
2018-01-22T21:19:13.221Z,586.40
2018-01-22T21:21:42.398Z,581.00
2018-01-22T21:24:11.588Z,589.63
2018-01-22T21:26:40.741Z,576.80
2018-01-22T21:29:09.889Z,578.77
2018-01-22T21:31:39.029Z,537.33
2018-01-22T21:34:08.177Z,516.33
2018-01-22T21:36:37.386Z,495.33
2018-01-22T21:39:06.527Z,544.50
2018-01-22T21:41:35.743Z,530.23
2018-01-22T21:44:04.885Z,528.60
2018-01-22T21:46:34.061Z,535.13
2018-01-22T21:49:03.238Z,491.83
2018-01-22T21:51:32.410Z,512.87
2018-01-22T21:54:01.580Z,503.13
2018-01-22T21:56:30.768Z,516.93
2018-01-22T21:58:59.920Z,543.43
2018-01-22T22:01:29.089Z,525.07
2018-01-22T22:03:58.249Z,542.37
2018-01-22T22:06:27.459Z,514.57
2018-01-22T22:08:56.641Z,537.57
2018-01-22T22:11:25.832Z,566.83
2018-01-22T22:13:55.005Z,472.33
2018-01-22T22:16:24.141Z,481.80
2018-01-22T22:18:53.323Z,477.63
2018-01-22T22:21:22.502Z,494.93
2018-01-22T22:23:51.648Z,475.07
2018-01-22T22:26:20.837Z,489.77
2018-01-22T22:28:49.986Z,447.77
2018-01-22T22:31:19.142Z,428.50
2018-01-22T22:33:48.282Z,469.07
2018-01-22T22:36:17.513Z,470.87
2018-01-22T22:38:46.641Z,486.97
2018-01-22T22:41:15.813Z,498.97
2018-01-22T22:43:44.977Z,495.13
2018-01-22T22:46:14.125Z,508.83
2018-01-22T22:48:43.310Z,518.93
2018-01-22T22:51:12.453Z,513.93
2018-01-22T22:53:41.641Z,493.63
2018-01-22T22:56:10.817Z,508.73
2018-01-22T22:58:39.965Z,475.80
2018-01-22T23:01:09.139Z,495.87
2018-01-22T23:03:38.282Z,463.40
2018-01-22T23:06:07.472Z,447.43
2018-01-22T23:08:36.657Z,467.07
2018-01-22T23:11:05.809Z,454.67
2018-01-22T23:13:34.953Z,525.10
2018-01-22T23:16:04.096Z,507.00
2018-01-22T23:18:33.263Z,531.97
2018-01-22T23:21:02.433Z,523.67
2018-01-22T23:23:31.601Z,488.87
2018-01-22T23:26:00.779Z,530.07
2018-01-22T23:28:29.915Z,500.10
2018-01-22T23:30:59.103Z,502.77
2018-01-22T23:33:28.269Z,524.77
2018-01-22T23:35:57.449Z,527.77
2018-01-22T23:38:26.594Z,548.03
2018-01-22T23:40:55.771Z,585.03
2018-01-22T23:43:24.961Z,588.97
2018-01-22T23:45:54.100Z,498.53
2018-01-22T23:48:23.265Z,571.17
2018-01-22T23:50:52.410Z,610.93
2018-01-22T23:53:21.598Z,558.87
2018-01-22T23:55:50.749Z,594.30
2018-01-22T23:58:19.921Z,593.47
